sensor_id;sensor_type;location;lat;lon;timestamp;temperature;humidity
31809;DHT22;18379;48.208;-1.518;2024-01-16T00:03:00;1.80;99.90
31809;DHT22;18379;48.208;-1.518;2024-01-16T00:08:01;1.80;99.90
31809;DHT22;18379;48.208;-1.518;2024-01-16T00:13:02;1.70;99.90
31809;DHT22;18379;48.208;-1.518;2024-01-16T00:18:02;1.60;99.90
31809;DHT22;18379;48.208;-1.518;2024-01-16T00:23:03;1.60;99.90
31809;DHT22;18379;48.208;-1.518;2024-01-16T00:28:04;1.60;99.90
31809;DHT22;18379;48.208;-1.518;2024-01-16T00:33:05;1.40;99.90
31809;DHT22;18379;48.208;-1.518;2024-01-16T00:38:06;1.30;99.90
31809;DHT22;18379;48.208;-1.518;2024-01-16T00:43:07;1.40;99.90
31809;DHT22;18379;48.208;-1.518;2024-01-16T00:48:07;1.40;99.90
31809;DHT22;18379;48.208;-1.518;2024-01-16T00:53:10;1.30;99.90
31809;DHT22;18379;48.208;-1.518;2024-01-16T00:58:11;1.20;99.90
31809;DHT22;18379;48.208;-1.518;2024-01-16T01:03:11;1.10;99.90
31809;DHT22;18379;48.208;-1.518;2024-01-16T01:08:12;1.20;99.90
31809;DHT22;18379;48.208;-1.518;2024-01-16T01:13:13;1.10;99.90
31809;DHT22;18379;48.208;-1.518;2024-01-16T01:18:14;1.20;99.90
31809;DHT22;18379;48.208;-1.518;2024-01-16T01:23:15;1.20;99.90
31809;DHT22;18379;48.208;-1.518;2024-01-16T01:28:15;1.10;99.90
31809;DHT22;18379;48.208;-1.518;2024-01-16T01:33:16;1.00;99.90
31809;DHT22;18379;48.208;-1.518;2024-01-16T01:38:17;1.10;99.90
31809;DHT22;18379;48.208;-1.518;2024-01-16T01:43:24;1.00;99.90
31809;DHT22;18379;48.208;-1.518;2024-01-16T01:48:25;0.70;99.90
31809;DHT22;18379;48.208;-1.518;2024-01-16T01:53:26;0.50;99.90
31809;DHT22;18379;48.208;-1.518;2024-01-16T01:58:27;0.50;99.90
31809;DHT22;18379;48.208;-1.518;2024-01-16T02:03:29;0.40;99.90
31809;DHT22;18379;48.208;-1.518;2024-01-16T02:08:32;0.40;99.90
31809;DHT22;18379;48.208;-1.518;2024-01-16T02:13:33;0.30;99.90
31809;DHT22;18379;48.208;-1.518;2024-01-16T02:18:34;0.40;99.90
31809;DHT22;18379;48.208;-1.518;2024-01-16T02:23:34;0.50;99.90
31809;DHT22;18379;48.208;-1.518;2024-01-16T02:28:35;0.50;99.90
31809;DHT22;18379;48.208;-1.518;2024-01-16T02:33:36;0.80;99.90
31809;DHT22;18379;48.208;-1.518;2024-01-16T02:38:36;0.70;99.90
31809;DHT22;18379;48.208;-1.518;2024-01-16T02:43:37;0.50;99.90
31809;DHT22;18379;48.208;-1.518;2024-01-16T02:48:38;0.40;99.90
31809;DHT22;18379;48.208;-1.518;2024-01-16T02:53:39;0.50;99.90
31809;DHT22;18379;48.208;-1.518;2024-01-16T02:58:39;0.70;99.90
31809;DHT22;18379;48.208;-1.518;2024-01-16T03:03:40;0.70;99.90
31809;DHT22;18379;48.208;-1.518;2024-01-16T03:08:41;0.80;99.90
31809;DHT22;18379;48.208;-1.518;2024-01-16T03:13:42;0.80;99.90
31809;DHT22;18379;48.208;-1.518;2024-01-16T03:18:43;0.80;99.90
31809;DHT22;18379;48.208;-1.518;2024-01-16T03:23:44;0.70;99.90
31809;DHT22;18379;48.208;-1.518;2024-01-16T03:28:44;0.80;99.90
31809;DHT22;18379;48.208;-1.518;2024-01-16T03:33:45;0.80;99.90
31809;DHT22;18379;48.208;-1.518;2024-01-16T03:38:46;0.90;99.90
31809;DHT22;18379;48.208;-1.518;2024-01-16T03:43:46;1.10;99.90
31809;DHT22;18379;48.208;-1.518;2024-01-16T03:48:47;1.30;99.90
31809;DHT22;18379;48.208;-1.518;2024-01-16T03:53:48;1.30;99.90
31809;DHT22;18379;48.208;-1.518;2024-01-16T03:58:48;1.10;99.90
31809;DHT22;18379;48.208;-1.518;2024-01-16T04:03:49;1.10;99.90
31809;DHT22;18379;48.208;-1.518;2024-01-16T04:08:50;1.10;99.90
31809;DHT22;18379;48.208;-1.518;2024-01-16T04:13:50;1.10;99.90
31809;DHT22;18379;48.208;-1.518;2024-01-16T04:18:51;1.10;99.90
31809;DHT22;18379;48.208;-1.518;2024-01-16T04:23:52;1.20;99.90
31809;DHT22;18379;48.208;-1.518;2024-01-16T04:28:52;1.30;99.90
31809;DHT22;18379;48.208;-1.518;2024-01-16T04:33:53;1.20;99.90
31809;DHT22;18379;48.208;-1.518;2024-01-16T04:38:54;1.30;99.90
31809;DHT22;18379;48.208;-1.518;2024-01-16T04:43:54;1.20;99.90
31809;DHT22;18379;48.208;-1.518;2024-01-16T04:48:55;1.30;99.90
31809;DHT22;18379;48.208;-1.518;2024-01-16T04:53:56;1.30;99.90
31809;DHT22;18379;48.208;-1.518;2024-01-16T04:58:56;1.20;99.90
31809;DHT22;18379;48.208;-1.518;2024-01-16T05:03:57;1.30;99.90
31809;DHT22;18379;48.208;-1.518;2024-01-16T05:08:57;1.30;99.90
31809;DHT22;18379;48.208;-1.518;2024-01-16T05:13:58;1.30;99.90
31809;DHT22;18379;48.208;-1.518;2024-01-16T05:18:59;1.30;99.90
31809;DHT22;18379;48.208;-1.518;2024-01-16T05:23:59;1.30;99.90
31809;DHT22;18379;48.208;-1.518;2024-01-16T05:29:00;1.30;99.90
31809;DHT22;18379;48.208;-1.518;2024-01-16T05:34:00;1.20;99.90
31809;DHT22;18379;48.208;-1.518;2024-01-16T05:39:01;1.20;99.90
31809;DHT22;18379;48.208;-1.518;2024-01-16T05:44:03;1.20;99.90
31809;DHT22;18379;48.208;-1.518;2024-01-16T05:49:06;1.30;99.90
31809;DHT22;18379;48.208;-1.518;2024-01-16T05:54:07;1.10;99.90
31809;DHT22;18379;48.208;-1.518;2024-01-16T05:59:07;0.90;99.90
31809;DHT22;18379;48.208;-1.518;2024-01-16T06:04:08;0.90;99.90
31809;DHT22;18379;48.208;-1.518;2024-01-16T06:09:09;0.90;99.90
31809;DHT22;18379;48.208;-1.518;2024-01-16T06:14:12;1.10;99.90
31809;DHT22;18379;48.208;-1.518;2024-01-16T06:19:13;1.10;99.90
31809;DHT22;18379;48.208;-1.518;2024-01-16T06:24:15;1.20;99.90
31809;DHT22;18379;48.208;-1.518;2024-01-16T06:29:15;1.30;99.90
31809;DHT22;18379;48.208;-1.518;2024-01-16T06:34:16;1.20;99.90
31809;DHT22;18379;48.208;-1.518;2024-01-16T06:39:17;1.10;99.90
31809;DHT22;18379;48.208;-1.518;2024-01-16T06:44:18;1.00;99.90
31809;DHT22;18379;48.208;-1.518;2024-01-16T06:49:19;1.00;99.90
31809;DHT22;18379;48.208;-1.518;2024-01-16T06:54:20;1.00;99.90
31809;DHT22;18379;48.208;-1.518;2024-01-16T06:59:21;1.00;99.90
31809;DHT22;18379;48.208;-1.518;2024-01-16T07:04:22;1.00;99.90
31809;DHT22;18379;48.208;-1.518;2024-01-16T07:09:23;1.10;99.90
31809;DHT22;18379;48.208;-1.518;2024-01-16T07:14:24;1.10;99.90
31809;DHT22;18379;48.208;-1.518;2024-01-16T07:19:25;1.10;99.90
31809;DHT22;18379;48.208;-1.518;2024-01-16T07:24:25;1.00;99.90
31809;DHT22;18379;48.208;-1.518;2024-01-16T07:29:26;0.90;99.90
31809;DHT22;18379;48.208;-1.518;2024-01-16T07:34:26;0.90;99.90
31809;DHT22;18379;48.208;-1.518;2024-01-16T07:39:27;1.10;99.90
31809;DHT22;18379;48.208;-1.518;2024-01-16T07:44:28;1.30;99.90
31809;DHT22;18379;48.208;-1.518;2024-01-16T07:49:28;1.40;99.90
31809;DHT22;18379;48.208;-1.518;2024-01-16T07:54:29;1.40;99.90
31809;DHT22;18379;48.208;-1.518;2024-01-16T07:59:31;1.50;99.90
31809;DHT22;18379;48.208;-1.518;2024-01-16T08:04:32;1.60;99.90
31809;DHT22;18379;48.208;-1.518;2024-01-16T08:09:32;1.60;99.90
31809;DHT22;18379;48.208;-1.518;2024-01-16T08:14:33;1.50;99.90
31809;DHT22;18379;48.208;-1.518;2024-01-16T08:19:33;1.50;99.90
31809;DHT22;18379;48.208;-1.518;2024-01-16T08:24:34;1.60;99.90
31809;DHT22;18379;48.208;-1.518;2024-01-16T08:29:35;1.70;99.90
31809;DHT22;18379;48.208;-1.518;2024-01-16T08:34:35;1.70;99.90
31809;DHT22;18379;48.208;-1.518;2024-01-16T08:39:36;1.70;99.90
31809;DHT22;18379;48.208;-1.518;2024-01-16T08:44:37;1.60;99.90
31809;DHT22;18379;48.208;-1.518;2024-01-16T08:49:38;1.70;99.90
31809;DHT22;18379;48.208;-1.518;2024-01-16T08:54:38;1.90;99.90
31809;DHT22;18379;48.208;-1.518;2024-01-16T08:59:42;2.10;99.90
31809;DHT22;18379;48.208;-1.518;2024-01-16T09:04:43;2.10;99.90
31809;DHT22;18379;48.208;-1.518;2024-01-16T09:09:43;2.10;99.90
31809;DHT22;18379;48.208;-1.518;2024-01-16T09:14:44;2.00;99.90
31809;DHT22;18379;48.208;-1.518;2024-01-16T09:19:45;2.10;99.90
31809;DHT22;18379;48.208;-1.518;2024-01-16T09:24:46;2.20;99.90
31809;DHT22;18379;48.208;-1.518;2024-01-16T09:29:47;2.20;99.90
31809;DHT22;18379;48.208;-1.518;2024-01-16T09:34:49;2.10;99.90
31809;DHT22;18379;48.208;-1.518;2024-01-16T09:39:50;2.10;99.90
31809;DHT22;18379;48.208;-1.518;2024-01-16T09:44:52;2.30;99.90
31809;DHT22;18379;48.208;-1.518;2024-01-16T09:49:56;2.40;99.90
31809;DHT22;18379;48.208;-1.518;2024-01-16T09:54:57;2.60;99.90
31809;DHT22;18379;48.208;-1.518;2024-01-16T10:00:00;2.80;99.90
31809;DHT22;18379;48.208;-1.518;2024-01-16T10:05:01;3.20;99.90
31809;DHT22;18379;48.208;-1.518;2024-01-16T10:10:01;3.40;99.90
31809;DHT22;18379;48.208;-1.518;2024-01-16T10:15:04;3.80;99.90
31809;DHT22;18379;48.208;-1.518;2024-01-16T10:20:06;4.20;99.90
31809;DHT22;18379;48.208;-1.518;2024-01-16T10:25:09;4.40;99.90
31809;DHT22;18379;48.208;-1.518;2024-01-16T10:30:12;4.60;99.90
31809;DHT22;18379;48.208;-1.518;2024-01-16T10:35:13;4.70;99.90
31809;DHT22;18379;48.208;-1.518;2024-01-16T10:40:21;4.70;99.90
31809;DHT22;18379;48.208;-1.518;2024-01-16T10:45:22;4.50;99.90
31809;DHT22;18379;48.208;-1.518;2024-01-16T10:50:23;4.60;99.90
31809;DHT22;18379;48.208;-1.518;2024-01-16T10:55:24;5.00;99.90
31809;DHT22;18379;48.208;-1.518;2024-01-16T11:00:25;5.10;99.90
31809;DHT22;18379;48.208;-1.518;2024-01-16T11:05:27;5.30;99.90
31809;DHT22;18379;48.208;-1.518;2024-01-16T11:10:31;5.60;99.90
31809;DHT22;18379;48.208;-1.518;2024-01-16T11:15:33;5.20;99.90
31809;DHT22;18379;48.208;-1.518;2024-01-16T11:20:35;5.20;99.90
31809;DHT22;18379;48.208;-1.518;2024-01-16T11:25:37;5.30;99.90
31809;DHT22;18379;48.208;-1.518;2024-01-16T11:30:38;5.30;99.90
31809;DHT22;18379;48.208;-1.518;2024-01-16T11:35:38;5.40;99.90
31809;DHT22;18379;48.208;-1.518;2024-01-16T11:40:40;5.80;99.90
31809;DHT22;18379;48.208;-1.518;2024-01-16T11:45:48;5.80;99.90
31809;DHT22;18379;48.208;-1.518;2024-01-16T11:50:49;5.80;99.90
31809;DHT22;18379;48.208;-1.518;2024-01-16T11:56:06;5.70;99.90
31809;DHT22;18379;48.208;-1.518;2024-01-16T12:01:10;5.90;99.90
31809;DHT22;18379;48.208;-1.518;2024-01-16T12:06:16;6.10;99.90
31809;DHT22;18379;48.208;-1.518;2024-01-16T12:11:19;5.80;99.90
31809;DHT22;18379;48.208;-1.518;2024-01-16T12:16:19;6.00;99.90
31809;DHT22;18379;48.208;-1.518;2024-01-16T12:21:20;6.20;99.90
31809;DHT22;18379;48.208;-1.518;2024-01-16T12:26:22;5.90;99.90
31809;DHT22;18379;48.208;-1.518;2024-01-16T12:31:23;6.20;99.90
31809;DHT22;18379;48.208;-1.518;2024-01-16T12:36:24;6.40;99.90
31809;DHT22;18379;48.208;-1.518;2024-01-16T12:41:28;6.20;99.90
31809;DHT22;18379;48.208;-1.518;2024-01-16T12:46:29;6.00;99.90
31809;DHT22;18379;48.208;-1.518;2024-01-16T12:51:30;6.00;99.90
31809;DHT22;18379;48.208;-1.518;2024-01-16T12:56:31;6.20;99.90
31809;DHT22;18379;48.208;-1.518;2024-01-16T13:01:31;6.30;99.90
31809;DHT22;18379;48.208;-1.518;2024-01-16T13:06:32;6.10;99.90
31809;DHT22;18379;48.208;-1.518;2024-01-16T13:11:51;6.10;99.90
31809;DHT22;18379;48.208;-1.518;2024-01-16T13:16:59;5.90;99.90
31809;DHT22;18379;48.208;-1.518;2024-01-16T13:22:01;5.80;99.90
31809;DHT22;18379;48.208;-1.518;2024-01-16T13:27:03;5.80;99.90
31809;DHT22;18379;48.208;-1.518;2024-01-16T13:32:05;5.60;99.90
31809;DHT22;18379;48.208;-1.518;2024-01-16T13:37:05;5.60;99.90
31809;DHT22;18379;48.208;-1.518;2024-01-16T13:42:07;5.60;99.90
31809;DHT22;18379;48.208;-1.518;2024-01-16T13:47:08;5.50;99.90
31809;DHT22;18379;48.208;-1.518;2024-01-16T13:52:08;5.40;99.90
31809;DHT22;18379;48.208;-1.518;2024-01-16T13:57:09;5.40;99.90
31809;DHT22;18379;48.208;-1.518;2024-01-16T14:02:10;5.30;99.90
31809;DHT22;18379;48.208;-1.518;2024-01-16T14:07:10;5.50;99.90
31809;DHT22;18379;48.208;-1.518;2024-01-16T14:12:11;5.40;99.90
31809;DHT22;18379;48.208;-1.518;2024-01-16T14:17:12;5.30;99.90
31809;DHT22;18379;48.208;-1.518;2024-01-16T14:22:13;5.30;99.90
31809;DHT22;18379;48.208;-1.518;2024-01-16T14:27:13;5.30;99.90
31809;DHT22;18379;48.208;-1.518;2024-01-16T14:32:16;5.30;99.90
31809;DHT22;18379;48.208;-1.518;2024-01-16T14:37:16;5.20;99.90
31809;DHT22;18379;48.208;-1.518;2024-01-16T14:42:17;5.00;99.90
31809;DHT22;18379;48.208;-1.518;2024-01-16T14:47:17;5.00;99.90
31809;DHT22;18379;48.208;-1.518;2024-01-16T14:52:18;5.00;99.90
31809;DHT22;18379;48.208;-1.518;2024-01-16T14:57:19;5.20;99.90
31809;DHT22;18379;48.208;-1.518;2024-01-16T15:02:19;5.20;99.90
31809;DHT22;18379;48.208;-1.518;2024-01-16T15:07:21;5.20;99.90
31809;DHT22;18379;48.208;-1.518;2024-01-16T15:12:21;5.20;99.90
31809;DHT22;18379;48.208;-1.518;2024-01-16T15:17:22;5.20;99.90
31809;DHT22;18379;48.208;-1.518;2024-01-16T15:22:23;5.10;99.90
31809;DHT22;18379;48.208;-1.518;2024-01-16T15:27:23;4.90;99.90
31809;DHT22;18379;48.208;-1.518;2024-01-16T15:32:24;4.80;99.90
31809;DHT22;18379;48.208;-1.518;2024-01-16T15:37:25;4.70;99.90
31809;DHT22;18379;48.208;-1.518;2024-01-16T15:42:26;4.60;99.90
31809;DHT22;18379;48.208;-1.518;2024-01-16T15:47:27;4.60;99.90
31809;DHT22;18379;48.208;-1.518;2024-01-16T15:52:28;4.70;99.90
31809;DHT22;18379;48.208;-1.518;2024-01-16T15:57:28;4.70;99.90
31809;DHT22;18379;48.208;-1.518;2024-01-16T16:02:29;4.60;99.90
31809;DHT22;18379;48.208;-1.518;2024-01-16T16:07:30;4.60;99.90
31809;DHT22;18379;48.208;-1.518;2024-01-16T16:12:30;4.50;99.90
31809;DHT22;18379;48.208;-1.518;2024-01-16T16:17:31;4.50;99.90
31809;DHT22;18379;48.208;-1.518;2024-01-16T16:22:32;4.30;99.90
31809;DHT22;18379;48.208;-1.518;2024-01-16T16:27:32;4.30;99.90
31809;DHT22;18379;48.208;-1.518;2024-01-16T16:32:33;4.30;99.90
31809;DHT22;18379;48.208;-1.518;2024-01-16T16:37:34;4.40;99.90
31809;DHT22;18379;48.208;-1.518;2024-01-16T16:42:34;4.30;99.90
31809;DHT22;18379;48.208;-1.518;2024-01-16T16:47:35;4.20;99.90
31809;DHT22;18379;48.208;-1.518;2024-01-16T16:52:35;4.10;99.90
31809;DHT22;18379;48.208;-1.518;2024-01-16T16:57:36;4.10;99.90
31809;DHT22;18379;48.208;-1.518;2024-01-16T17:02:37;4.10;99.90
31809;DHT22;18379;48.208;-1.518;2024-01-16T17:07:38;4.00;99.90
31809;DHT22;18379;48.208;-1.518;2024-01-16T17:12:38;3.90;99.90
31809;DHT22;18379;48.208;-1.518;2024-01-16T17:17:40;3.90;99.90
31809;DHT22;18379;48.208;-1.518;2024-01-16T17:22:41;3.80;99.90
31809;DHT22;18379;48.208;-1.518;2024-01-16T17:27:42;3.90;99.90
31809;DHT22;18379;48.208;-1.518;2024-01-16T17:32:44;3.80;99.90
31809;DHT22;18379;48.208;-1.518;2024-01-16T17:37:45;3.70;99.90
31809;DHT22;18379;48.208;-1.518;2024-01-16T17:42:46;3.60;99.90
31809;DHT22;18379;48.208;-1.518;2024-01-16T17:47:48;3.70;99.90
31809;DHT22;18379;48.208;-1.518;2024-01-16T17:52:48;3.70;99.90
31809;DHT22;18379;48.208;-1.518;2024-01-16T17:57:49;3.70;99.90
31809;DHT22;18379;48.208;-1.518;2024-01-16T18:02:50;3.80;99.90
31809;DHT22;18379;48.208;-1.518;2024-01-16T18:07:51;3.70;99.90
31809;DHT22;18379;48.208;-1.518;2024-01-16T18:12:51;3.70;99.90
31809;DHT22;18379;48.208;-1.518;2024-01-16T18:17:52;3.80;99.90
31809;DHT22;18379;48.208;-1.518;2024-01-16T18:22:53;3.80;99.90
31809;DHT22;18379;48.208;-1.518;2024-01-16T18:27:56;3.80;99.90
31809;DHT22;18379;48.208;-1.518;2024-01-16T18:32:57;3.70;99.90
31809;DHT22;18379;48.208;-1.518;2024-01-16T18:37:59;3.70;99.90
31809;DHT22;18379;48.208;-1.518;2024-01-16T18:42:59;3.60;99.90
31809;DHT22;18379;48.208;-1.518;2024-01-16T18:48:00;3.50;99.90
31809;DHT22;18379;48.208;-1.518;2024-01-16T18:53:01;3.50;99.90
31809;DHT22;18379;48.208;-1.518;2024-01-16T18:58:02;3.40;99.90
31809;DHT22;18379;48.208;-1.518;2024-01-16T19:03:04;3.40;99.90
31809;DHT22;18379;48.208;-1.518;2024-01-16T19:08:05;3.40;99.90
31809;DHT22;18379;48.208;-1.518;2024-01-16T19:13:07;3.40;99.90
31809;DHT22;18379;48.208;-1.518;2024-01-16T19:18:12;3.50;99.90
31809;DHT22;18379;48.208;-1.518;2024-01-16T19:23:12;3.40;99.90
31809;DHT22;18379;48.208;-1.518;2024-01-16T19:28:13;3.40;99.90
31809;DHT22;18379;48.208;-1.518;2024-01-16T19:33:13;3.40;99.90
31809;DHT22;18379;48.208;-1.518;2024-01-16T19:38:15;3.50;99.90
31809;DHT22;18379;48.208;-1.518;2024-01-16T19:43:16;3.60;99.90
31809;DHT22;18379;48.208;-1.518;2024-01-16T19:48:17;3.50;99.90
31809;DHT22;18379;48.208;-1.518;2024-01-16T19:53:19;3.40;99.90
31809;DHT22;18379;48.208;-1.518;2024-01-16T19:58:21;3.30;99.90
31809;DHT22;18379;48.208;-1.518;2024-01-16T20:03:22;3.20;99.90
31809;DHT22;18379;48.208;-1.518;2024-01-16T20:08:22;3.10;99.90
31809;DHT22;18379;48.208;-1.518;2024-01-16T20:13:24;3.20;99.90
31809;DHT22;18379;48.208;-1.518;2024-01-16T20:18:25;3.10;99.90
31809;DHT22;18379;48.208;-1.518;2024-01-16T20:23:26;3.20;99.90
31809;DHT22;18379;48.208;-1.518;2024-01-16T20:28:26;3.10;99.90
31809;DHT22;18379;48.208;-1.518;2024-01-16T20:33:27;3.00;99.90
31809;DHT22;18379;48.208;-1.518;2024-01-16T20:38:28;3.00;99.90
31809;DHT22;18379;48.208;-1.518;2024-01-16T20:43:29;2.90;99.90
31809;DHT22;18379;48.208;-1.518;2024-01-16T20:48:30;2.90;99.90
31809;DHT22;18379;48.208;-1.518;2024-01-16T20:53:31;2.90;99.90
31809;DHT22;18379;48.208;-1.518;2024-01-16T20:58:32;2.80;99.90
31809;DHT22;18379;48.208;-1.518;2024-01-16T21:03:33;2.80;99.90
31809;DHT22;18379;48.208;-1.518;2024-01-16T21:08:34;2.80;99.90
31809;DHT22;18379;48.208;-1.518;2024-01-16T21:13:35;2.80;99.90
31809;DHT22;18379;48.208;-1.518;2024-01-16T21:18:37;2.80;99.90
31809;DHT22;18379;48.208;-1.518;2024-01-16T21:23:41;2.80;99.90
31809;DHT22;18379;48.208;-1.518;2024-01-16T21:28:41;2.80;99.90
31809;DHT22;18379;48.208;-1.518;2024-01-16T21:33:43;2.80;99.90
31809;DHT22;18379;48.208;-1.518;2024-01-16T21:38:44;2.90;99.90
31809;DHT22;18379;48.208;-1.518;2024-01-16T21:43:45;2.80;99.90
31809;DHT22;18379;48.208;-1.518;2024-01-16T21:48:45;2.80;99.90
31809;DHT22;18379;48.208;-1.518;2024-01-16T21:53:46;2.90;99.90
31809;DHT22;18379;48.208;-1.518;2024-01-16T21:58:47;2.80;99.90
31809;DHT22;18379;48.208;-1.518;2024-01-16T22:03:47;2.70;99.90
31809;DHT22;18379;48.208;-1.518;2024-01-16T22:08:51;2.80;99.90
31809;DHT22;18379;48.208;-1.518;2024-01-16T22:13:53;2.80;99.90
31809;DHT22;18379;48.208;-1.518;2024-01-16T22:18:53;2.80;99.90
31809;DHT22;18379;48.208;-1.518;2024-01-16T22:23:54;2.80;99.90
31809;DHT22;18379;48.208;-1.518;2024-01-16T22:28:55;2.90;99.90
31809;DHT22;18379;48.208;-1.518;2024-01-16T22:33:55;2.90;99.90
31809;DHT22;18379;48.208;-1.518;2024-01-16T22:38:56;3.00;99.90
31809;DHT22;18379;48.208;-1.518;2024-01-16T22:43:57;3.00;99.90
31809;DHT22;18379;48.208;-1.518;2024-01-16T22:48:58;2.90;99.90
31809;DHT22;18379;48.208;-1.518;2024-01-16T22:53:59;2.90;99.90
31809;DHT22;18379;48.208;-1.518;2024-01-16T22:58:59;3.00;99.90
31809;DHT22;18379;48.208;-1.518;2024-01-16T23:04:00;2.90;99.90
31809;DHT22;18379;48.208;-1.518;2024-01-16T23:09:02;2.90;99.90
31809;DHT22;18379;48.208;-1.518;2024-01-16T23:14:05;3.00;99.90
31809;DHT22;18379;48.208;-1.518;2024-01-16T23:19:06;2.90;99.90
31809;DHT22;18379;48.208;-1.518;2024-01-16T23:24:06;3.00;99.90
31809;DHT22;18379;48.208;-1.518;2024-01-16T23:29:07;2.90;99.90
31809;DHT22;18379;48.208;-1.518;2024-01-16T23:34:08;2.90;99.90
31809;DHT22;18379;48.208;-1.518;2024-01-16T23:39:08;2.90;99.90
31809;DHT22;18379;48.208;-1.518;2024-01-16T23:44:11;2.80;99.90
31809;DHT22;18379;48.208;-1.518;2024-01-16T23:49:11;2.80;99.90
31809;DHT22;18379;48.208;-1.518;2024-01-16T23:54:14;2.80;99.90
31809;DHT22;18379;48.208;-1.518;2024-01-16T23:59:15;2.90;99.90
